sensor_id;sensor_type;location;lat;lon;timestamp;temperature;humidity
8896;DHT22;4484;48.928;10.066;2023-03-14T00:00:23;7.70;99.90
8896;DHT22;4484;48.928;10.066;2023-03-14T00:02:54;7.70;99.90
8896;DHT22;4484;48.928;10.066;2023-03-14T00:05:21;7.70;99.90
8896;DHT22;4484;48.928;10.066;2023-03-14T00:07:47;7.70;99.90
8896;DHT22;4484;48.928;10.066;2023-03-14T00:10:15;7.70;99.90
8896;DHT22;4484;48.928;10.066;2023-03-14T00:12:42;7.70;99.90
8896;DHT22;4484;48.928;10.066;2023-03-14T00:15:09;7.70;99.90
8896;DHT22;4484;48.928;10.066;2023-03-14T00:17:37;7.70;99.90
8896;DHT22;4484;48.928;10.066;2023-03-14T00:20:06;7.70;99.90
8896;DHT22;4484;48.928;10.066;2023-03-14T00:22:38;7.70;99.90
8896;DHT22;4484;48.928;10.066;2023-03-14T00:25:07;7.70;99.90
8896;DHT22;4484;48.928;10.066;2023-03-14T00:27:34;7.70;99.90
8896;DHT22;4484;48.928;10.066;2023-03-14T00:30:02;7.80;99.90
8896;DHT22;4484;48.928;10.066;2023-03-14T00:32:29;7.80;99.90
8896;DHT22;4484;48.928;10.066;2023-03-14T00:34:56;7.80;99.90
8896;DHT22;4484;48.928;10.066;2023-03-14T00:37:22;7.80;99.90
8896;DHT22;4484;48.928;10.066;2023-03-14T00:39:51;7.80;99.90
8896;DHT22;4484;48.928;10.066;2023-03-14T00:42:18;7.80;99.90
8896;DHT22;4484;48.928;10.066;2023-03-14T00:44:45;7.80;99.90
8896;DHT22;4484;48.928;10.066;2023-03-14T00:47:11;7.80;99.90
8896;DHT22;4484;48.928;10.066;2023-03-14T00:49:38;7.80;99.90
8896;DHT22;4484;48.928;10.066;2023-03-14T00:52:05;7.90;99.90
8896;DHT22;4484;48.928;10.066;2023-03-14T00:54:31;7.90;99.90
8896;DHT22;4484;48.928;10.066;2023-03-14T00:56:59;7.90;99.90
8896;DHT22;4484;48.928;10.066;2023-03-14T00:59:25;7.90;99.90
8896;DHT22;4484;48.928;10.066;2023-03-14T01:01:52;7.90;99.90
8896;DHT22;4484;48.928;10.066;2023-03-14T01:04:19;7.90;99.90
8896;DHT22;4484;48.928;10.066;2023-03-14T01:06:46;7.90;99.90
8896;DHT22;4484;48.928;10.066;2023-03-14T01:09:12;7.90;99.90
8896;DHT22;4484;48.928;10.066;2023-03-14T01:11:40;7.90;99.90
8896;DHT22;4484;48.928;10.066;2023-03-14T01:14:07;7.80;99.90
8896;DHT22;4484;48.928;10.066;2023-03-14T01:16:34;7.80;99.90
8896;DHT22;4484;48.928;10.066;2023-03-14T01:19:02;7.90;99.90
8896;DHT22;4484;48.928;10.066;2023-03-14T01:21:31;7.80;99.90
8896;DHT22;4484;48.928;10.066;2023-03-14T01:24:00;7.80;99.90
8896;DHT22;4484;48.928;10.066;2023-03-14T01:26:30;7.80;99.90
8896;DHT22;4484;48.928;10.066;2023-03-14T01:28:58;7.80;99.90
8896;DHT22;4484;48.928;10.066;2023-03-14T01:31:26;7.80;99.90
8896;DHT22;4484;48.928;10.066;2023-03-14T01:33:53;7.80;99.90
8896;DHT22;4484;48.928;10.066;2023-03-14T01:36:20;7.80;99.90
8896;DHT22;4484;48.928;10.066;2023-03-14T01:38:47;7.80;99.90
8896;DHT22;4484;48.928;10.066;2023-03-14T01:41:19;7.80;99.90
8896;DHT22;4484;48.928;10.066;2023-03-14T01:43:46;7.70;99.90
8896;DHT22;4484;48.928;10.066;2023-03-14T01:46:26;7.70;99.90
8896;DHT22;4484;48.928;10.066;2023-03-14T01:48:59;7.80;99.90
8896;DHT22;4484;48.928;10.066;2023-03-14T01:51:33;7.70;99.90
8896;DHT22;4484;48.928;10.066;2023-03-14T01:54:08;7.70;99.90
8896;DHT22;4484;48.928;10.066;2023-03-14T01:56:36;7.70;99.90
8896;DHT22;4484;48.928;10.066;2023-03-14T01:59:06;7.70;99.90
8896;DHT22;4484;48.928;10.066;2023-03-14T02:01:34;7.70;99.90
8896;DHT22;4484;48.928;10.066;2023-03-14T02:04:05;7.60;99.90
8896;DHT22;4484;48.928;10.066;2023-03-14T02:06:49;7.60;99.90
8896;DHT22;4484;48.928;10.066;2023-03-14T02:09:20;7.60;99.90
8896;DHT22;4484;48.928;10.066;2023-03-14T02:11:47;7.60;99.90
8896;DHT22;4484;48.928;10.066;2023-03-14T02:14:36;7.60;99.90
8896;DHT22;4484;48.928;10.066;2023-03-14T02:17:20;7.60;99.90
8896;DHT22;4484;48.928;10.066;2023-03-14T02:23:00;7.60;99.90
8896;DHT22;4484;48.928;10.066;2023-03-14T02:25:46;7.60;99.90
8896;DHT22;4484;48.928;10.066;2023-03-14T02:28:14;7.60;99.90
8896;DHT22;4484;48.928;10.066;2023-03-14T02:30:42;7.60;99.90
8896;DHT22;4484;48.928;10.066;2023-03-14T02:33:14;7.60;99.90
8896;DHT22;4484;48.928;10.066;2023-03-14T02:35:55;7.50;99.90
8896;DHT22;4484;48.928;10.066;2023-03-14T02:38:35;7.50;99.90
8896;DHT22;4484;48.928;10.066;2023-03-14T02:41:04;7.40;99.90
8896;DHT22;4484;48.928;10.066;2023-03-14T02:43:38;7.40;99.90
8896;DHT22;4484;48.928;10.066;2023-03-14T02:46:14;7.40;99.90
8896;DHT22;4484;48.928;10.066;2023-03-14T02:48:43;7.30;99.90
8896;DHT22;4484;48.928;10.066;2023-03-14T02:51:12;7.30;99.90
8896;DHT22;4484;48.928;10.066;2023-03-14T02:53:40;7.20;99.90
8896;DHT22;4484;48.928;10.066;2023-03-14T02:56:11;7.20;99.90
8896;DHT22;4484;48.928;10.066;2023-03-14T02:58:38;7.20;99.90
8896;DHT22;4484;48.928;10.066;2023-03-14T03:01:17;7.20;99.90
8896;DHT22;4484;48.928;10.066;2023-03-14T03:03:43;7.30;99.90
8896;DHT22;4484;48.928;10.066;2023-03-14T03:06:11;7.30;99.90
8896;DHT22;4484;48.928;10.066;2023-03-14T03:08:38;7.30;99.90
8896;DHT22;4484;48.928;10.066;2023-03-14T03:11:05;7.30;99.90
8896;DHT22;4484;48.928;10.066;2023-03-14T03:13:34;7.30;99.90
8896;DHT22;4484;48.928;10.066;2023-03-14T03:16:03;7.30;99.90
8896;DHT22;4484;48.928;10.066;2023-03-14T03:18:30;7.30;99.90
8896;DHT22;4484;48.928;10.066;2023-03-14T03:21:04;7.30;99.90
8896;DHT22;4484;48.928;10.066;2023-03-14T03:23:32;7.30;99.90
8896;DHT22;4484;48.928;10.066;2023-03-14T03:25:59;7.30;99.90
8896;DHT22;4484;48.928;10.066;2023-03-14T03:28:25;7.30;99.90
8896;DHT22;4484;48.928;10.066;2023-03-14T03:30:53;7.20;99.90
8896;DHT22;4484;48.928;10.066;2023-03-14T03:33:20;7.20;99.90
8896;DHT22;4484;48.928;10.066;2023-03-14T03:35:50;7.20;99.90
8896;DHT22;4484;48.928;10.066;2023-03-14T03:38:23;7.30;99.90
8896;DHT22;4484;48.928;10.066;2023-03-14T03:40:52;7.20;99.90
8896;DHT22;4484;48.928;10.066;2023-03-14T03:43:19;7.20;99.90
8896;DHT22;4484;48.928;10.066;2023-03-14T03:45:48;7.20;99.90
8896;DHT22;4484;48.928;10.066;2023-03-14T03:48:15;7.30;99.90
8896;DHT22;4484;48.928;10.066;2023-03-14T03:50:46;7.30;99.90
8896;DHT22;4484;48.928;10.066;2023-03-14T03:53:16;7.20;99.90
8896;DHT22;4484;48.928;10.066;2023-03-14T03:55:58;7.20;99.90
8896;DHT22;4484;48.928;10.066;2023-03-14T03:58:25;7.20;99.90
8896;DHT22;4484;48.928;10.066;2023-03-14T04:00:52;7.30;99.90
8896;DHT22;4484;48.928;10.066;2023-03-14T04:03:19;7.30;99.90
8896;DHT22;4484;48.928;10.066;2023-03-14T04:05:46;7.30;99.90
8896;DHT22;4484;48.928;10.066;2023-03-14T04:08:13;7.30;99.90
8896;DHT22;4484;48.928;10.066;2023-03-14T04:10:39;7.20;99.90
8896;DHT22;4484;48.928;10.066;2023-03-14T04:13:14;7.30;99.90
8896;DHT22;4484;48.928;10.066;2023-03-14T04:15:43;7.30;99.90
8896;DHT22;4484;48.928;10.066;2023-03-14T04:18:23;7.30;99.90
8896;DHT22;4484;48.928;10.066;2023-03-14T04:20:56;7.30;99.90
8896;DHT22;4484;48.928;10.066;2023-03-14T04:23:29;7.20;99.90
8896;DHT22;4484;48.928;10.066;2023-03-14T04:25:56;7.20;99.90
8896;DHT22;4484;48.928;10.066;2023-03-14T04:28:24;7.20;99.90
8896;DHT22;4484;48.928;10.066;2023-03-14T04:30:51;7.30;99.90
8896;DHT22;4484;48.928;10.066;2023-03-14T04:33:21;7.30;99.90
8896;DHT22;4484;48.928;10.066;2023-03-14T04:35:55;7.40;99.90
8896;DHT22;4484;48.928;10.066;2023-03-14T04:38:24;7.40;99.90
8896;DHT22;4484;48.928;10.066;2023-03-14T04:40:51;7.40;99.90
8896;DHT22;4484;48.928;10.066;2023-03-14T04:43:21;7.40;99.90
8896;DHT22;4484;48.928;10.066;2023-03-14T04:45:56;7.40;99.90
8896;DHT22;4484;48.928;10.066;2023-03-14T04:48:25;7.40;99.90
8896;DHT22;4484;48.928;10.066;2023-03-14T04:50:53;7.40;99.90
8896;DHT22;4484;48.928;10.066;2023-03-14T04:53:21;7.40;99.90
8896;DHT22;4484;48.928;10.066;2023-03-14T04:55:51;7.30;99.90
8896;DHT22;4484;48.928;10.066;2023-03-14T04:58:20;7.20;99.90
8896;DHT22;4484;48.928;10.066;2023-03-14T05:00:49;7.30;99.90
8896;DHT22;4484;48.928;10.066;2023-03-14T05:03:34;7.30;99.90
8896;DHT22;4484;48.928;10.066;2023-03-14T05:06:12;7.30;99.90
8896;DHT22;4484;48.928;10.066;2023-03-14T05:08:59;7.30;99.90
8896;DHT22;4484;48.928;10.066;2023-03-14T05:11:58;7.30;99.90
8896;DHT22;4484;48.928;10.066;2023-03-14T05:14:44;7.40;99.90
8896;DHT22;4484;48.928;10.066;2023-03-14T05:17:49;7.40;99.90
8896;DHT22;4484;48.928;10.066;2023-03-14T05:20:39;7.30;99.90
8896;DHT22;4484;48.928;10.066;2023-03-14T05:23:21;7.40;99.90
8896;DHT22;4484;48.928;10.066;2023-03-14T05:26:04;7.40;99.90
8896;DHT22;4484;48.928;10.066;2023-03-14T05:28:51;7.30;99.90
8896;DHT22;4484;48.928;10.066;2023-03-14T05:31:32;7.40;99.90
8896;DHT22;4484;48.928;10.066;2023-03-14T05:34:10;7.30;99.90
8896;DHT22;4484;48.928;10.066;2023-03-14T05:36:57;7.30;99.90
8896;DHT22;4484;48.928;10.066;2023-03-14T05:39:43;7.30;99.90
8896;DHT22;4484;48.928;10.066;2023-03-14T05:42:28;7.30;99.90
8896;DHT22;4484;48.928;10.066;2023-03-14T05:45:10;7.30;99.90
8896;DHT22;4484;48.928;10.066;2023-03-14T05:47:56;7.30;99.90
8896;DHT22;4484;48.928;10.066;2023-03-14T05:50:56;7.30;99.90
8896;DHT22;4484;48.928;10.066;2023-03-14T05:53:35;7.30;99.90
8896;DHT22;4484;48.928;10.066;2023-03-14T05:56:20;7.30;99.90
8896;DHT22;4484;48.928;10.066;2023-03-14T05:59:05;7.20;99.90
8896;DHT22;4484;48.928;10.066;2023-03-14T06:01:52;7.20;99.90
8896;DHT22;4484;48.928;10.066;2023-03-14T06:04:24;7.20;99.90
8896;DHT22;4484;48.928;10.066;2023-03-14T06:06:55;7.20;99.90
8896;DHT22;4484;48.928;10.066;2023-03-14T06:09:22;7.20;99.90
8896;DHT22;4484;48.928;10.066;2023-03-14T06:11:51;7.20;99.90
8896;DHT22;4484;48.928;10.066;2023-03-14T06:14:18;7.20;99.90
8896;DHT22;4484;48.928;10.066;2023-03-14T06:16:47;7.20;99.90
8896;DHT22;4484;48.928;10.066;2023-03-14T06:19:18;7.20;99.90
8896;DHT22;4484;48.928;10.066;2023-03-14T06:21:46;7.20;99.90
8896;DHT22;4484;48.928;10.066;2023-03-14T06:24:12;7.20;99.90
8896;DHT22;4484;48.928;10.066;2023-03-14T06:26:44;7.20;99.90
8896;DHT22;4484;48.928;10.066;2023-03-14T06:29:11;7.20;99.90
8896;DHT22;4484;48.928;10.066;2023-03-14T06:31:40;7.20;99.90
8896;DHT22;4484;48.928;10.066;2023-03-14T06:34:08;7.20;99.90
8896;DHT22;4484;48.928;10.066;2023-03-14T06:36:34;7.20;99.90
8896;DHT22;4484;48.928;10.066;2023-03-14T06:39:02;7.20;99.90
8896;DHT22;4484;48.928;10.066;2023-03-14T06:41:31;7.20;99.90
8896;DHT22;4484;48.928;10.066;2023-03-14T06:43:59;7.20;99.90
8896;DHT22;4484;48.928;10.066;2023-03-14T06:46:26;7.30;99.90
8896;DHT22;4484;48.928;10.066;2023-03-14T06:48:53;7.30;99.90
8896;DHT22;4484;48.928;10.066;2023-03-14T06:51:20;7.40;99.90
8896;DHT22;4484;48.928;10.066;2023-03-14T06:53:48;7.40;99.90
8896;DHT22;4484;48.928;10.066;2023-03-14T06:56:16;7.50;99.90
8896;DHT22;4484;48.928;10.066;2023-03-14T06:58:43;7.50;99.90
8896;DHT22;4484;48.928;10.066;2023-03-14T07:01:23;7.50;99.90
8896;DHT22;4484;48.928;10.066;2023-03-14T07:03:52;7.50;99.90
8896;DHT22;4484;48.928;10.066;2023-03-14T07:06:21;7.50;99.90
8896;DHT22;4484;48.928;10.066;2023-03-14T07:08:48;7.50;99.90
8896;DHT22;4484;48.928;10.066;2023-03-14T07:11:16;7.60;99.90
8896;DHT22;4484;48.928;10.066;2023-03-14T07:13:43;7.60;99.90
8896;DHT22;4484;48.928;10.066;2023-03-14T07:16:10;7.60;99.90
8896;DHT22;4484;48.928;10.066;2023-03-14T07:18:37;7.60;99.90
8896;DHT22;4484;48.928;10.066;2023-03-14T07:21:06;7.70;99.90
8896;DHT22;4484;48.928;10.066;2023-03-14T07:23:33;7.80;99.90
8896;DHT22;4484;48.928;10.066;2023-03-14T07:26:00;7.90;99.90
8896;DHT22;4484;48.928;10.066;2023-03-14T07:28:29;8.10;99.90
8896;DHT22;4484;48.928;10.066;2023-03-14T07:31:01;8.30;99.90
8896;DHT22;4484;48.928;10.066;2023-03-14T07:33:31;8.40;99.90
8896;DHT22;4484;48.928;10.066;2023-03-14T07:35:59;8.60;99.90
8896;DHT22;4484;48.928;10.066;2023-03-14T07:38:26;8.80;99.90
8896;DHT22;4484;48.928;10.066;2023-03-14T07:41:12;9.10;99.90
8896;DHT22;4484;48.928;10.066;2023-03-14T07:43:47;9.30;99.90
8896;DHT22;4484;48.928;10.066;2023-03-14T07:46:13;9.50;99.90
8896;DHT22;4484;48.928;10.066;2023-03-14T07:48:41;9.70;99.90
8896;DHT22;4484;48.928;10.066;2023-03-14T07:51:08;9.70;99.90
8896;DHT22;4484;48.928;10.066;2023-03-14T07:53:35;9.80;99.90
8896;DHT22;4484;48.928;10.066;2023-03-14T07:56:02;10.00;99.90
8896;DHT22;4484;48.928;10.066;2023-03-14T07:58:28;10.20;99.90
8896;DHT22;4484;48.928;10.066;2023-03-14T08:00:55;10.30;99.90
8896;DHT22;4484;48.928;10.066;2023-03-14T08:03:24;10.60;99.90
8896;DHT22;4484;48.928;10.066;2023-03-14T08:05:51;10.70;99.90
8896;DHT22;4484;48.928;10.066;2023-03-14T08:08:18;10.90;99.90
8896;DHT22;4484;48.928;10.066;2023-03-14T08:10:46;11.20;99.90
8896;DHT22;4484;48.928;10.066;2023-03-14T08:13:13;11.40;99.90
8896;DHT22;4484;48.928;10.066;2023-03-14T08:15:39;11.30;99.90
8896;DHT22;4484;48.928;10.066;2023-03-14T08:18:06;11.10;99.90
8896;DHT22;4484;48.928;10.066;2023-03-14T08:20:33;11.00;99.90
8896;DHT22;4484;48.928;10.066;2023-03-14T08:23:01;10.90;99.90
8896;DHT22;4484;48.928;10.066;2023-03-14T08:25:28;10.80;99.90
8896;DHT22;4484;48.928;10.066;2023-03-14T08:27:55;11.00;99.90
8896;DHT22;4484;48.928;10.066;2023-03-14T08:30:22;11.30;99.90
8896;DHT22;4484;48.928;10.066;2023-03-14T08:32:49;11.60;99.90
8896;DHT22;4484;48.928;10.066;2023-03-14T08:35:17;11.80;99.90
8896;DHT22;4484;48.928;10.066;2023-03-14T08:37:45;11.90;99.90
8896;DHT22;4484;48.928;10.066;2023-03-14T08:40:12;12.00;99.90
8896;DHT22;4484;48.928;10.066;2023-03-14T08:42:40;12.30;99.90
8896;DHT22;4484;48.928;10.066;2023-03-14T08:45:07;12.30;99.90
8896;DHT22;4484;48.928;10.066;2023-03-14T08:47:35;12.30;99.90
8896;DHT22;4484;48.928;10.066;2023-03-14T08:50:03;12.40;99.90
8896;DHT22;4484;48.928;10.066;2023-03-14T08:52:31;12.40;99.90
8896;DHT22;4484;48.928;10.066;2023-03-14T08:54:58;12.40;99.90
8896;DHT22;4484;48.928;10.066;2023-03-14T08:57:25;12.50;99.90
8896;DHT22;4484;48.928;10.066;2023-03-14T08:59:55;12.50;99.90
8896;DHT22;4484;48.928;10.066;2023-03-14T09:02:23;12.60;99.90
8896;DHT22;4484;48.928;10.066;2023-03-14T09:04:50;12.60;99.90
8896;DHT22;4484;48.928;10.066;2023-03-14T09:07:18;12.50;99.90
8896;DHT22;4484;48.928;10.066;2023-03-14T09:09:45;12.30;99.90
8896;DHT22;4484;48.928;10.066;2023-03-14T09:12:12;12.30;99.90
8896;DHT22;4484;48.928;10.066;2023-03-14T09:14:39;12.00;99.90
8896;DHT22;4484;48.928;10.066;2023-03-14T09:17:06;12.00;99.90
8896;DHT22;4484;48.928;10.066;2023-03-14T09:19:33;12.00;99.90
8896;DHT22;4484;48.928;10.066;2023-03-14T09:22:00;11.90;99.90
8896;DHT22;4484;48.928;10.066;2023-03-14T09:24:27;11.90;99.90
8896;DHT22;4484;48.928;10.066;2023-03-14T09:26:55;12.00;99.90
8896;DHT22;4484;48.928;10.066;2023-03-14T09:29:22;12.20;99.90
8896;DHT22;4484;48.928;10.066;2023-03-14T09:31:49;12.50;99.90
8896;DHT22;4484;48.928;10.066;2023-03-14T09:34:16;12.50;99.90
8896;DHT22;4484;48.928;10.066;2023-03-14T09:36:43;12.70;99.90
8896;DHT22;4484;48.928;10.066;2023-03-14T09:39:11;12.80;99.90
8896;DHT22;4484;48.928;10.066;2023-03-14T09:41:41;12.80;99.90
8896;DHT22;4484;48.928;10.066;2023-03-14T09:44:14;12.80;99.90
8896;DHT22;4484;48.928;10.066;2023-03-14T09:46:45;13.00;99.90
8896;DHT22;4484;48.928;10.066;2023-03-14T09:49:25;13.20;99.90
8896;DHT22;4484;48.928;10.066;2023-03-14T09:51:56;13.20;99.90
8896;DHT22;4484;48.928;10.066;2023-03-14T09:54:31;13.00;99.90
8896;DHT22;4484;48.928;10.066;2023-03-14T09:56:59;12.90;99.90
8896;DHT22;4484;48.928;10.066;2023-03-14T09:59:27;12.80;99.90
8896;DHT22;4484;48.928;10.066;2023-03-14T10:02:11;12.70;99.90
8896;DHT22;4484;48.928;10.066;2023-03-14T10:04:40;12.70;99.90
8896;DHT22;4484;48.928;10.066;2023-03-14T10:07:16;12.70;99.90
8896;DHT22;4484;48.928;10.066;2023-03-14T10:09:44;12.70;99.90
8896;DHT22;4484;48.928;10.066;2023-03-14T10:12:11;12.70;99.90
8896;DHT22;4484;48.928;10.066;2023-03-14T10:14:54;12.70;99.90
8896;DHT22;4484;48.928;10.066;2023-03-14T10:17:21;12.50;99.90
8896;DHT22;4484;48.928;10.066;2023-03-14T10:19:59;12.60;99.90
8896;DHT22;4484;48.928;10.066;2023-03-14T10:22:29;12.90;99.90
8896;DHT22;4484;48.928;10.066;2023-03-14T10:25:02;13.20;99.90
8896;DHT22;4484;48.928;10.066;2023-03-14T10:27:34;13.30;99.90
8896;DHT22;4484;48.928;10.066;2023-03-14T10:30:05;13.30;99.90
8896;DHT22;4484;48.928;10.066;2023-03-14T10:32:36;13.70;99.90
8896;DHT22;4484;48.928;10.066;2023-03-14T10:35:23;14.10;99.90
8896;DHT22;4484;48.928;10.066;2023-03-14T10:38:05;14.50;99.90
8896;DHT22;4484;48.928;10.066;2023-03-14T10:40:39;14.80;99.90
8896;DHT22;4484;48.928;10.066;2023-03-14T10:43:13;14.90;99.90
8896;DHT22;4484;48.928;10.066;2023-03-14T10:45:42;14.90;99.90
8896;DHT22;4484;48.928;10.066;2023-03-14T10:48:31;14.90;99.90
8896;DHT22;4484;48.928;10.066;2023-03-14T10:51:11;14.70;99.90
8896;DHT22;4484;48.928;10.066;2023-03-14T10:56:20;14.60;99.90
8896;DHT22;4484;48.928;10.066;2023-03-14T10:58:49;14.30;99.90
8896;DHT22;4484;48.928;10.066;2023-03-14T11:09:38;15.00;99.90
8896;DHT22;4484;48.928;10.066;2023-03-14T11:12:27;15.30;99.90
8896;DHT22;4484;48.928;10.066;2023-03-14T11:15:20;15.80;99.90
8896;DHT22;4484;48.928;10.066;2023-03-14T11:20:42;15.80;99.90
8896;DHT22;4484;48.928;10.066;2023-03-14T11:23:32;15.10;99.90
8896;DHT22;4484;48.928;10.066;2023-03-14T11:29:35;14.50;99.90
8896;DHT22;4484;48.928;10.066;2023-03-14T11:34:56;14.20;99.90
8896;DHT22;4484;48.928;10.066;2023-03-14T11:37:34;14.10;99.90
8896;DHT22;4484;48.928;10.066;2023-03-14T11:42:44;13.50;99.90
8896;DHT22;4484;48.928;10.066;2023-03-14T11:45:35;13.30;99.90
8896;DHT22;4484;48.928;10.066;2023-03-14T11:48:38;13.20;99.90
8896;DHT22;4484;48.928;10.066;2023-03-14T11:51:13;13.20;99.90
8896;DHT22;4484;48.928;10.066;2023-03-14T11:59:21;12.50;99.90
8896;DHT22;4484;48.928;10.066;2023-03-14T12:02:03;12.10;99.90
8896;DHT22;4484;48.928;10.066;2023-03-14T12:07:21;11.60;99.90
8896;DHT22;4484;48.928;10.066;2023-03-14T12:09:51;11.30;99.90
8896;DHT22;4484;48.928;10.066;2023-03-14T12:12:20;11.10;99.90
8896;DHT22;4484;48.928;10.066;2023-03-14T12:15:00;10.90;99.90
8896;DHT22;4484;48.928;10.066;2023-03-14T12:17:41;10.70;99.90
8896;DHT22;4484;48.928;10.066;2023-03-14T12:20:20;10.60;99.90
8896;DHT22;4484;48.928;10.066;2023-03-14T12:22:51;10.50;99.90
8896;DHT22;4484;48.928;10.066;2023-03-14T12:25:21;10.30;99.90
8896;DHT22;4484;48.928;10.066;2023-03-14T12:30:26;10.00;99.90
8896;DHT22;4484;48.928;10.066;2023-03-14T12:41:23;9.60;99.90
8896;DHT22;4484;48.928;10.066;2023-03-14T12:43:52;9.50;99.90
8896;DHT22;4484;48.928;10.066;2023-03-14T12:46:27;9.50;99.90
8896;DHT22;4484;48.928;10.066;2023-03-14T12:48:54;9.40;99.90
8896;DHT22;4484;48.928;10.066;2023-03-14T12:57:22;9.30;99.90
8896;DHT22;4484;48.928;10.066;2023-03-14T12:59:57;9.20;99.90
8896;DHT22;4484;48.928;10.066;2023-03-14T13:02:29;9.10;99.90
8896;DHT22;4484;48.928;10.066;2023-03-14T13:15:48;9.30;99.90
8896;DHT22;4484;48.928;10.066;2023-03-14T13:18:27;9.30;99.90
8896;DHT22;4484;48.928;10.066;2023-03-14T13:23:40;9.30;99.90
8896;DHT22;4484;48.928;10.066;2023-03-14T13:26:13;9.30;99.90
8896;DHT22;4484;48.928;10.066;2023-03-14T13:28:41;9.20;99.90
8896;DHT22;4484;48.928;10.066;2023-03-14T13:31:23;9.10;99.90
8896;DHT22;4484;48.928;10.066;2023-03-14T13:34:01;9.00;99.90
8896;DHT22;4484;48.928;10.066;2023-03-14T13:36:28;8.90;99.90
8896;DHT22;4484;48.928;10.066;2023-03-14T13:38:58;8.60;99.90
8896;DHT22;4484;48.928;10.066;2023-03-14T13:41:26;8.60;99.90
8896;DHT22;4484;48.928;10.066;2023-03-14T13:44:04;8.40;99.90
8896;DHT22;4484;48.928;10.066;2023-03-14T13:46:34;8.20;99.90
8896;DHT22;4484;48.928;10.066;2023-03-14T13:49:03;7.70;99.90
8896;DHT22;4484;48.928;10.066;2023-03-14T13:51:31;7.50;99.90
8896;DHT22;4484;48.928;10.066;2023-03-14T13:54:02;7.40;99.90
8896;DHT22;4484;48.928;10.066;2023-03-14T13:56:33;7.40;99.90
8896;DHT22;4484;48.928;10.066;2023-03-14T13:59:00;7.50;99.90
8896;DHT22;4484;48.928;10.066;2023-03-14T14:01:30;7.60;99.90
8896;DHT22;4484;48.928;10.066;2023-03-14T14:04:06;7.80;99.90
8896;DHT22;4484;48.928;10.066;2023-03-14T14:06:38;7.90;99.90
8896;DHT22;4484;48.928;10.066;2023-03-14T14:09:13;8.00;99.90
8896;DHT22;4484;48.928;10.066;2023-03-14T14:11:56;8.20;99.90
8896;DHT22;4484;48.928;10.066;2023-03-14T14:14:47;8.40;99.90
8896;DHT22;4484;48.928;10.066;2023-03-14T14:17:26;8.40;99.90
8896;DHT22;4484;48.928;10.066;2023-03-14T14:19:55;8.30;99.90
8896;DHT22;4484;48.928;10.066;2023-03-14T14:22:23;8.20;99.90
8896;DHT22;4484;48.928;10.066;2023-03-14T14:24:50;8.10;99.90
8896;DHT22;4484;48.928;10.066;2023-03-14T14:27:29;8.10;99.90
8896;DHT22;4484;48.928;10.066;2023-03-14T14:30:04;8.30;99.90
8896;DHT22;4484;48.928;10.066;2023-03-14T14:32:37;8.60;99.90
8896;DHT22;4484;48.928;10.066;2023-03-14T14:35:05;8.70;99.90
8896;DHT22;4484;48.928;10.066;2023-03-14T14:37:34;8.80;99.90
8896;DHT22;4484;48.928;10.066;2023-03-14T14:40:09;9.00;99.90
8896;DHT22;4484;48.928;10.066;2023-03-14T14:42:40;9.00;99.90
8896;DHT22;4484;48.928;10.066;2023-03-14T14:45:13;8.70;99.90
8896;DHT22;4484;48.928;10.066;2023-03-14T14:50:31;8.20;99.90
8896;DHT22;4484;48.928;10.066;2023-03-14T14:53:03;8.20;99.90
8896;DHT22;4484;48.928;10.066;2023-03-14T14:55:45;8.30;99.90
8896;DHT22;4484;48.928;10.066;2023-03-14T15:01:03;8.20;99.90
8896;DHT22;4484;48.928;10.066;2023-03-14T15:03:32;7.90;99.90
8896;DHT22;4484;48.928;10.066;2023-03-14T15:06:01;7.70;99.90
8896;DHT22;4484;48.928;10.066;2023-03-14T15:08:28;7.50;99.90
8896;DHT22;4484;48.928;10.066;2023-03-14T15:10:56;7.40;99.90
8896;DHT22;4484;48.928;10.066;2023-03-14T15:13:23;7.30;99.90
8896;DHT22;4484;48.928;10.066;2023-03-14T15:15:51;7.30;99.90
8896;DHT22;4484;48.928;10.066;2023-03-14T15:18:24;7.30;99.90
8896;DHT22;4484;48.928;10.066;2023-03-14T15:20:51;7.30;99.90
8896;DHT22;4484;48.928;10.066;2023-03-14T15:23:21;7.40;99.90
8896;DHT22;4484;48.928;10.066;2023-03-14T15:25:48;7.40;99.90
8896;DHT22;4484;48.928;10.066;2023-03-14T15:28:25;7.20;99.90
8896;DHT22;4484;48.928;10.066;2023-03-14T15:30:55;7.10;99.90
8896;DHT22;4484;48.928;10.066;2023-03-14T15:33:22;7.00;99.90
8896;DHT22;4484;48.928;10.066;2023-03-14T15:35:50;6.90;99.90
8896;DHT22;4484;48.928;10.066;2023-03-14T15:38:19;6.90;99.90
8896;DHT22;4484;48.928;10.066;2023-03-14T15:40:50;6.90;99.90
8896;DHT22;4484;48.928;10.066;2023-03-14T15:43:18;6.80;99.90
8896;DHT22;4484;48.928;10.066;2023-03-14T15:45:45;6.80;99.90
8896;DHT22;4484;48.928;10.066;2023-03-14T15:48:20;6.80;99.90
8896;DHT22;4484;48.928;10.066;2023-03-14T15:50:47;6.70;99.90
8896;DHT22;4484;48.928;10.066;2023-03-14T15:53:14;6.80;99.90
8896;DHT22;4484;48.928;10.066;2023-03-14T15:55:41;6.70;99.90
8896;DHT22;4484;48.928;10.066;2023-03-14T15:58:16;6.70;99.90
8896;DHT22;4484;48.928;10.066;2023-03-14T16:00:47;6.60;99.90
8896;DHT22;4484;48.928;10.066;2023-03-14T16:03:14;6.60;99.90
8896;DHT22;4484;48.928;10.066;2023-03-14T16:05:41;6.60;99.90
8896;DHT22;4484;48.928;10.066;2023-03-14T16:08:08;6.60;99.90
8896;DHT22;4484;48.928;10.066;2023-03-14T16:10:35;6.70;99.90
8896;DHT22;4484;48.928;10.066;2023-03-14T16:13:02;6.70;99.90
8896;DHT22;4484;48.928;10.066;2023-03-14T16:15:29;6.80;99.90
8896;DHT22;4484;48.928;10.066;2023-03-14T16:17:56;6.80;99.90
8896;DHT22;4484;48.928;10.066;2023-03-14T16:20:23;6.80;99.90
8896;DHT22;4484;48.928;10.066;2023-03-14T16:22:50;6.80;99.90
8896;DHT22;4484;48.928;10.066;2023-03-14T16:25:17;6.80;99.90
8896;DHT22;4484;48.928;10.066;2023-03-14T16:27:44;6.80;99.90
8896;DHT22;4484;48.928;10.066;2023-03-14T16:30:12;6.80;99.90
8896;DHT22;4484;48.928;10.066;2023-03-14T16:32:41;6.80;99.90
8896;DHT22;4484;48.928;10.066;2023-03-14T16:35:11;6.70;99.90
8896;DHT22;4484;48.928;10.066;2023-03-14T16:37:38;6.70;99.90
8896;DHT22;4484;48.928;10.066;2023-03-14T16:40:05;6.70;99.90
8896;DHT22;4484;48.928;10.066;2023-03-14T16:42:38;6.60;99.90
8896;DHT22;4484;48.928;10.066;2023-03-14T16:45:25;6.60;99.90
8896;DHT22;4484;48.928;10.066;2023-03-14T16:47:52;6.40;99.90
8896;DHT22;4484;48.928;10.066;2023-03-14T16:50:18;6.40;99.90
8896;DHT22;4484;48.928;10.066;2023-03-14T16:52:45;6.30;99.90
8896;DHT22;4484;48.928;10.066;2023-03-14T16:55:13;6.30;99.90
8896;DHT22;4484;48.928;10.066;2023-03-14T16:57:40;6.20;99.90
8896;DHT22;4484;48.928;10.066;2023-03-14T17:00:07;6.20;99.90
8896;DHT22;4484;48.928;10.066;2023-03-14T17:02:37;6.10;99.90
8896;DHT22;4484;48.928;10.066;2023-03-14T17:05:04;6.00;99.90
8896;DHT22;4484;48.928;10.066;2023-03-14T17:07:31;5.90;99.90
8896;DHT22;4484;48.928;10.066;2023-03-14T17:09:58;5.90;99.90
8896;DHT22;4484;48.928;10.066;2023-03-14T17:12:25;5.80;99.90
8896;DHT22;4484;48.928;10.066;2023-03-14T17:14:51;5.80;99.90
8896;DHT22;4484;48.928;10.066;2023-03-14T17:17:19;5.80;99.90
8896;DHT22;4484;48.928;10.066;2023-03-14T17:19:46;5.70;99.90
8896;DHT22;4484;48.928;10.066;2023-03-14T17:22:13;5.70;99.90
8896;DHT22;4484;48.928;10.066;2023-03-14T17:24:50;5.70;99.90
8896;DHT22;4484;48.928;10.066;2023-03-14T17:27:17;5.70;99.90
8896;DHT22;4484;48.928;10.066;2023-03-14T17:29:47;5.70;99.90
8896;DHT22;4484;48.928;10.066;2023-03-14T17:32:15;5.60;99.90